Nellis AFB, Nevada
Current Conditions -  °F | °C
As of 4:58 PM on Monday 26 Jan 2015 (Local Time) from KLSV Reporting Station
Overcast Overcast  
Wind Chill: 67°   Ceiling: 9500
Heat Index: 67°   Visibility: 10mi
Dew Point: 33°   Wind: 6mph
Humidity: 29%   Direction: 160°SSE
Pressure: 30.09"   Gusts: NA
Location:  36.24°N, 115.03°W
Report Text: KLSV 270058Z AUTO 16005KT 10SM OVC095 20/01 A3009 RMK AO2 SLP183 T01950007 $
Loading
Personal Weather Stations






























Interactive Weather Map New forecast layout! Learn more

10-Day Weather Forecast

Advertisements
Track Severe Weather on mobile